Time;durP1;ratioP1;P1;durP2;ratioP2;P2;SDS_P1;SDS_P2;PMS_P1;PMS_P2;Temp;Humidity;BMP_temperature;BMP_pressure;BME280_temperature;BME280_humidity;BME280_pressure;Samples;Min_cycle;Max_cycle;Signal;HPM_P1;HPM_P2
2023/04/24 00:04:16;;;;;;;;;;;;;;;12.97;49.47;100121.81;10538888;28;19924;-82
2023/04/24 00:09:18;;;;;;;;;;;;;;;12.98;49.49;100123.47;10538239;28;19931;-81
2023/04/24 00:14:20;;;;;;;;;;;;;;;13.05;49.07;100122.22;10546012;28;19970;-80
2023/04/24 00:19:22;;;;;;;;;;;;;;;13.01;49.47;100119.25;10551419;28;19935;-80
2023/04/24 00:24:24;;;;;;;;;;;;;;;13.00;49.42;100109.38;10554113;28;19981;-80
2023/04/24 00:29:28;;;;;;;;;;;;;;;12.83;49.31;100101.75;10534139;28;19931;-79
2023/04/24 00:34:32;;;;;;;;;;;;;;;12.64;49.65;100114.84;10546960;28;20380;-81
2023/04/24 00:39:34;;;;;;;;;;;;;;;12.50;50.06;100098.38;10549094;28;19931;-82
2023/04/24 00:44:35;;;;;;;;;;;;;;;12.42;49.94;100101.81;10570012;28;19924;-82
2023/04/24 00:49:37;;;;;;;;;;;;;;;12.26;50.66;100098.56;10556424;28;20380;-82
2023/04/24 00:54:40;;;;;;;;;;;;;;;12.24;50.60;100092.56;10552531;28;19924;-80
2023/04/24 00:59:42;;;;;;;;;;;;;;;12.26;50.74;100089.50;10548978;28;19931;-82
2023/04/24 01:04:44;;;;;;;;;;;;;;;12.28;51.16;100090.00;10548457;28;20414;-82
2023/04/24 01:09:48;;;;;;;;;;;;;;;12.25;50.95;100083.19;10567656;28;19924;-81
2023/04/24 01:14:49;;;;;;;;;;;;;;;12.13;51.96;100080.13;10553164;28;19931;-82
2023/04/24 01:19:53;;;;;;;;;;;;;;;12.16;52.14;100089.72;10546698;28;19982;-82
2023/04/24 01:24:55;;;;;;;;;;;;;;;12.25;51.81;100083.19;10473365;28;20351;-81
2023/04/24 01:29:57;;;;;;;;;;;;;;;12.18;51.66;100082.78;10497958;28;19931;-81
2023/04/24 01:34:59;;;;;;;;;;;;;;;12.21;52.29;100075.84;10516517;28;19930;-82
2023/04/24 01:40:01;;;;;;;;;;;;;;;12.20;51.87;100069.53;10493978;28;19929;-81
2023/04/24 01:45:03;;;;;;;;;;;;;;;12.24;52.08;100062.31;10509432;28;19924;-81
2023/04/24 01:50:06;;;;;;;;;;;;;;;12.22;52.32;100060.97;10493826;28;20390;-81
2023/04/24 01:55:08;;;;;;;;;;;;;;;12.18;52.19;100063.53;10489150;28;19931;-82
2023/04/24 02:00:11;;;;;;;;;;;;;;;12.22;52.46;100060.97;10511981;28;19935;-83
2023/04/24 02:05:16;;;;;;;;;;;;;;;12.18;53.19;100055.28;10500791;28;19931;-80
2023/04/24 02:10:18;;;;;;;;;;;;;;;12.20;52.36;100047.53;10508869;28;20291;-79
2023/04/24 02:15:20;;;;;;;;;;;;;;;12.29;52.87;100040.19;10532978;28;19924;-83
2023/04/24 02:20:22;;;;;;;;;;;;;;;12.23;53.05;100046.09;10540592;28;19927;-81
2023/04/24 02:25:24;;;;;;;;;;;;;;;12.13;52.58;100038.84;10561636;28;19924;-81
2023/04/24 02:30:29;;;;;;;;;;;;;;;12.15;53.41;100044.06;10533121;28;19931;-82
2023/04/24 02:35:31;;;;;;;;;;;;;;;12.22;52.61;100037.03;10545504;28;20453;-81
2023/04/24 02:46:53;;;;;;;;;;;;;;;12.23;53.24;100038.66;10565550;28;19924;-82
2023/04/24 02:51:55;;;;;;;;;;;;;;;12.18;52.92;100037.97;10549203;28;19924;-79
2023/04/24 02:56:57;;;;;;;;;;;;;;;12.20;53.74;100031.03;10530410;28;20306;-82
2023/04/24 03:07:38;;;;;;;;;;;;;;;12.56;52.94;100014.56;10552777;28;20307;-81
2023/04/24 03:12:40;;;;;;;;;;;;;;;13.03;51.45;100009.63;10563003;28;19931;-80
2023/04/24 03:17:42;;;;;;;;;;;;;;;13.61;50.52;100016.16;10556238;28;20014;-80
2023/04/24 03:22:44;;;;;;;;;;;;;;;14.04;49.76;100005.31;10547978;28;19924;-82
2023/04/24 03:27:47;;;;;;;;;;;;;;;14.33;48.67;100013.03;10542827;28;19939;-80
2023/04/24 03:33:00;;;;;;;;;;;;;;;14.18;48.59;100011.53;10537673;28;20384;-80
2023/04/24 03:38:05;;;;;;;;;;;;;;;14.22;48.70;100008.94;10533778;28;19924;-82
2023/04/24 03:43:27;;;;;;;;;;;;;;;13.96;48.76;100012.44;10551465;28;19931;-80
2023/04/24 03:48:31;;;;;;;;;;;;;;;13.86;49.02;100018.22;10544257;28;20049;-82
2023/04/24 03:53:33;;;;;;;;;;;;;;;13.92;48.95;100013.41;10562472;28;20284;-81
2023/04/24 03:58:35;;;;;;;;;;;;;;;14.42;48.27;100017.44;10535135;28;19943;-82
2023/04/24 04:03:38;;;;;;;;;;;;;;;14.36;48.55;100015.94;10522061;28;19924;-81
2023/04/24 04:08:40;;;;;;;;;;;;;;;14.11;48.79;100016.72;10506202;28;19925;-79
2023/04/24 04:13:47;;;;;;;;;;;;;;;14.28;48.02;99999.38;10500609;28;19936;-82
2023/04/24 04:18:52;;;;;;;;;;;;;;;14.46;47.82;100004.66;10533402;28;19924;-80
2023/04/24 04:23:54;;;;;;;;;;;;;;;14.70;47.69;100006.94;10502933;28;19993;-80
2023/04/24 04:29:03;;;;;;;;;;;;;;;14.88;47.18;100006.94;10528228;28;19931;-80
2023/04/24 04:34:07;;;;;;;;;;;;;;;14.99;46.92;100009.06;10524909;28;19920;-83
2023/04/24 04:39:09;;;;;;;;;;;;;;;15.19;46.33;99999.28;10527462;28;20395;-80
2023/04/24 04:44:23;;;;;;;;;;;;;;;15.29;46.26;99995.38;10523760;28;19924;-80
2023/04/24 04:49:28;;;;;;;;;;;;;;;15.71;45.21;99995.59;10522115;28;19924;-81
2023/04/24 04:54:31;;;;;;;;;;;;;;;16.89;42.88;99990.84;10523245;28;20312;-81
2023/04/24 04:59:33;;;;;;;;;;;;;;;17.24;42.73;99985.78;10530831;28;19938;-83
2023/04/24 05:04:40;;;;;;;;;;;;;;;18.12;40.74;99984.44;10504435;28;19925;-81
2023/04/24 05:09:44;;;;;;;;;;;;;;;18.94;38.82;99987.78;10534015;28;19925;-81
2023/04/24 05:14:46;;;;;;;;;;;;;;;19.14;38.31;99972.06;10536530;28;20001;-82
2023/04/24 05:20:00;;;;;;;;;;;;;;;19.48;38.03;99975.34;10503236;28;19931;-81
2023/04/24 05:25:04;;;;;;;;;;;;;;;19.81;36.92;99972.28;10552977;28;19924;-80
2023/04/24 05:30:17;;;;;;;;;;;;;;;20.13;35.99;99967.47;10537067;28;19931;-80
2023/04/24 05:35:19;;;;;;;;;;;;;;;20.17;36.53;99969.19;10528626;28;19927;-82
2023/04/24 05:40:22;;;;;;;;;;;;;;;20.49;35.63;99959.97;10535317;28;19931;-82
2023/04/24 05:45:24;;;;;;;;;;;;;;;20.87;35.31;99959.19;10550026;28;19930;-81
2023/04/24 05:50:26;;;;;;;;;;;;;;;21.30;34.46;99967.25;10539994;28;19924;-82
2023/04/24 05:55:28;;;;;;;;;;;;;;;21.22;34.38;99961.91;10554402;28;19931;-80
2023/04/24 06:00:30;;;;;;;;;;;;;;;21.45;34.21;99959.97;10516666;28;19924;-81
2023/04/24 06:05:40;;;;;;;;;;;;;;;22.01;33.13;99962.09;10551906;28;19924;-82
2023/04/24 06:10:42;;;;;;;;;;;;;;;22.38;33.08;99950.31;10547981;28;19969;-80
2023/04/24 06:15:45;;;;;;;;;;;;;;;22.63;32.66;99940.31;10524934;28;19931;-81
2023/04/24 06:20:55;;;;;;;;;;;;;;;22.67;31.45;99941.16;10538161;28;20106;-81
2023/04/24 06:26:00;;;;;;;;;;;;;;;22.56;31.96;99945.78;10524927;28;19924;-82
2023/04/24 06:31:02;;;;;;;;;;;;;;;22.19;32.34;99938.06;10532506;28;19924;-81
2023/04/24 06:36:05;;;;;;;;;;;;;;;22.58;31.75;99942.63;10529486;28;19931;-81
2023/04/24 06:41:07;;;;;;;;;;;;;;;22.85;31.61;99928.22;10533087;28;19924;-80
2023/04/24 06:46:09;;;;;;;;;;;;;;;22.76;31.04;99935.28;10534466;28;19931;-81
2023/04/24 06:51:11;;;;;;;;;;;;;;;22.92;31.49;99929.50;10537298;28;19931;-82
2023/04/24 06:56:13;;;;;;;;;;;;;;;23.47;31.61;99933.28;10532223;28;20401;-80
2023/04/24 07:01:15;;;;;;;;;;;;;;;24.00;30.70;99921.75;10561135;28;20397;-82
2023/04/24 07:06:18;;;;;;;;;;;;;;;23.98;29.76;99932.56;10529552;28;19946;-81
2023/04/24 07:11:20;;;;;;;;;;;;;;;23.83;30.53;99936.44;10533049;28;19924;-84
2023/04/24 07:16:22;;;;;;;;;;;;;;;23.64;29.51;99929.88;10531737;28;20380;-81
2023/04/24 07:21:25;;;;;;;;;;;;;;;23.90;30.29;99922.47;10517667;28;19924;-82
2023/04/24 07:26:28;;;;;;;;;;;;;;;24.32;28.80;99922.00;10550127;28;20422;-82
2023/04/24 07:31:30;;;;;;;;;;;;;;;24.28;29.71;99938.75;10531999;28;19935;-82
2023/04/24 07:36:32;;;;;;;;;;;;;;;24.26;29.57;99913.13;10555697;28;20299;-83
2023/04/24 07:41:34;;;;;;;;;;;;;;;24.43;29.46;99927.66;10561192;28;20023;-81
2023/04/24 07:46:36;;;;;;;;;;;;;;;24.22;28.94;99933.91;10555790;28;19924;-82
2023/04/24 07:51:38;;;;;;;;;;;;;;;23.96;29.72;99926.53;10564072;28;19928;-84
2023/04/24 07:56:43;;;;;;;;;;;;;;;23.80;29.04;99915.63;10555868;28;20396;-82
2023/04/24 08:01:46;;;;;;;;;;;;;;;24.07;29.18;99910.59;10545231;28;19931;-80
2023/04/24 08:06:48;;;;;;;;;;;;;;;24.22;28.91;99925.50;10539082;28;20367;-82
2023/04/24 08:11:50;;;;;;;;;;;;;;;24.40;28.44;99912.44;10516915;28;19924;-80
2023/04/24 08:16:54;;;;;;;;;;;;;;;24.50;27.61;99917.31;10535535;28;20288;-82
2023/04/24 08:21:56;;;;;;;;;;;;;;;24.09;28.62;99897.00;10505986;28;19924;-84
2023/04/24 08:26:59;;;;;;;;;;;;;;;24.24;27.91;99906.28;10521591;28;20038;-82
2023/04/24 08:32:01;;;;;;;;;;;;;;;24.44;28.00;99918.06;10523029;28;19924;-84
2023/04/24 08:37:03;;;;;;;;;;;;;;;24.10;27.94;99909.81;10536662;28;19924;-79
2023/04/24 08:42:07;;;;;;;;;;;;;;;24.20;27.95;99903.47;10564416;28;19928;-80
2023/04/24 08:47:10;;;;;;;;;;;;;;;24.83;28.17;99902.22;10526536;28;20399;-79
2023/04/24 08:52:12;;;;;;;;;;;;;;;24.81;27.10;99904.59;10546252;28;20392;-81
2023/04/24 08:57:15;;;;;;;;;;;;;;;24.72;26.91;99903.38;10517307;28;19931;-81
2023/04/24 09:02:19;;;;;;;;;;;;;;;24.45;26.51;99891.63;10527552;28;19943;-80
2023/04/24 09:07:22;;;;;;;;;;;;;;;24.21;27.83;99895.88;10528567;28;19924;-80
2023/04/24 09:12:24;;;;;;;;;;;;;;;24.03;27.14;99901.38;10574211;28;19928;-80
2023/04/24 09:17:28;;;;;;;;;;;;;;;24.40;27.98;99900.41;10557222;28;20303;-81
2023/04/24 09:22:33;;;;;;;;;;;;;;;23.24;28.56;99893.44;10519229;28;19978;-81
2023/04/24 09:27:35;;;;;;;;;;;;;;;22.28;30.03;99895.91;10556538;28;19927;-81
2023/04/24 09:32:37;;;;;;;;;;;;;;;22.03;30.37;99889.09;10539932;28;20380;-82
2023/04/24 09:37:41;;;;;;;;;;;;;;;21.79;31.00;99879.16;10522905;28;19920;-80
2023/04/24 09:43:01;;;;;;;;;;;;;;;21.55;31.44;99886.78;10522112;28;20327;-80
2023/04/24 09:48:06;;;;;;;;;;;;;;;21.46;31.55;99900.16;10546221;28;20303;-81
2023/04/24 09:53:10;;;;;;;;;;;;;;;21.50;31.15;99887.06;10555683;28;19920;-81
2023/04/24 09:58:20;;;;;;;;;;;;;;;21.57;31.36;99889.19;10552508;28;19924;-82
2023/04/24 10:03:34;;;;;;;;;;;;;;;21.74;30.66;99899.84;10559924;28;19923;-77
2023/04/24 10:08:37;;;;;;;;;;;;;;;21.72;31.18;99909.78;10555873;28;19919;-82
2023/04/24 10:13:40;;;;;;;;;;;;;;;21.63;31.36;99904.44;10569555;28;19924;-79
2023/04/24 10:18:45;;;;;;;;;;;;;;;21.56;31.33;99893.16;10554074;28;19931;-81
2023/04/24 10:23:47;;;;;;;;;;;;;;;21.48;31.37;99889.44;10530016;28;19924;-81
2023/04/24 10:28:50;;;;;;;;;;;;;;;21.27;31.92;99903.00;10538109;28;20427;-79
2023/04/24 10:33:52;;;;;;;;;;;;;;;21.35;31.56;99902.78;10555217;28;19923;-79
2023/04/24 10:38:54;;;;;;;;;;;;;;;21.50;31.99;99900.22;10528718;28;20387;-82
2023/04/24 10:44:09;;;;;;;;;;;;;;;21.22;32.24;99918.06;10545559;28;19924;-79
2023/04/24 10:49:12;;;;;;;;;;;;;;;20.85;33.55;99939.25;10511891;28;19931;-78
2023/04/24 10:54:34;;;;;;;;;;;;;;;20.40;35.14;99946.22;10538459;28;19928;-82
2023/04/24 10:59:37;;;;;;;;;;;;;;;19.94;35.61;99953.47;10533526;28;19930;-79
2023/04/24 11:04:39;;;;;;;;;;;;;;;19.48;36.71;99950.31;10596214;28;19923;-80
2023/04/24 11:09:41;;;;;;;;;;;;;;;19.12;37.61;99963.28;10612976;28;19923;-82
2023/04/24 11:15:01;;;;;;;;;;;;;;;19.05;38.15;99968.59;10580795;28;19924;-81
2023/04/24 11:20:07;;;;;;;;;;;;;;;19.09;38.35;99977.03;10551183;28;19928;-79
2023/04/24 11:25:11;;;;;;;;;;;;;;;18.86;38.35;99983.16;10562843;28;19931;-79
2023/04/24 11:30:17;;;;;;;;;;;;;;;18.59;39.01;99981.97;10562924;28;19925;-77
2023/04/24 11:35:21;;;;;;;;;;;;;;;18.41;39.39;99994.50;10539737;28;19924;-78
2023/04/24 11:40:23;;;;;;;;;;;;;;;18.35;40.45;100009.75;10555518;28;19932;-82
2023/04/24 11:45:28;;;;;;;;;;;;;;;18.16;40.02;100010.34;10522463;28;19959;-82
2023/04/24 11:50:30;;;;;;;;;;;;;;;17.96;40.55;100019.59;10540320;28;20359;-81
2023/04/24 11:55:32;;;;;;;;;;;;;;;18.02;40.78;100013.47;10533738;28;19931;-81
2023/04/24 12:00:35;;;;;;;;;;;;;;;17.98;40.97;100015.31;10542844;28;19924;-81
2023/04/24 12:05:38;;;;;;;;;;;;;;;18.19;40.89;100008.84;10523814;28;19925;-83
2023/04/24 12:10:40;;;;;;;;;;;;;;;18.26;40.49;100007.13;10530077;28;19931;-80
2023/04/24 12:15:42;;;;;;;;;;;;;;;18.33;40.51;100004.56;10546168;28;19930;-82
2023/04/24 12:20:47;;;;;;;;;;;;;;;18.37;40.88;100005.47;10531540;28;19924;-81
2023/04/24 12:25:50;;;;;;;;;;;;;;;18.42;40.75;100011.97;10552166;28;19920;-81
2023/04/24 12:30:52;;;;;;;;;;;;;;;18.39;40.86;100003.16;10538401;28;20375;-80
2023/04/24 12:35:55;;;;;;;;;;;;;;;18.35;41.03;100013.34;10550581;28;19978;-81
2023/04/24 12:41:04;;;;;;;;;;;;;;;18.37;41.11;100011.03;10531931;28;19924;-80
2023/04/24 12:46:06;;;;;;;;;;;;;;;18.29;41.33;100027.81;10619043;28;19924;-82
2023/04/24 12:51:08;;;;;;;;;;;;;;;18.33;41.01;100026.78;10596992;28;19924;-80
2023/04/24 12:56:10;;;;;;;;;;;;;;;18.42;41.07;100023.88;10546946;28;19962;-79
2023/04/24 13:01:12;;;;;;;;;;;;;;;18.52;40.74;100028.16;10570718;28;19924;-80
2023/04/24 13:06:14;;;;;;;;;;;;;;;18.47;40.79;100039.50;10575436;28;19924;-80
2023/04/24 13:11:16;;;;;;;;;;;;;;;18.26;41.12;100043.22;10566990;28;19924;-81
2023/04/24 13:16:18;;;;;;;;;;;;;;;18.21;41.24;100037.88;10542497;28;20390;-80
2023/04/24 13:21:20;;;;;;;;;;;;;;;18.13;41.24;100036.03;10576186;28;20007;-81
2023/04/24 13:26:22;;;;;;;;;;;;;;;17.85;42.16;100049.75;10547388;28;19928;-80
2023/04/24 13:31:24;;;;;;;;;;;;;;;17.62;42.81;100054.88;10545506;28;19928;-79
2023/04/24 13:36:26;;;;;;;;;;;;;;;17.37;43.50;100065.09;10548415;28;20314;-79
2023/04/24 13:41:32;;;;;;;;;;;;;;;17.38;43.88;100060.38;10561953;28;20292;-82
2023/04/24 13:46:34;;;;;;;;;;;;;;;17.25;44.34;100067.81;10512182;28;19930;-81
2023/04/24 13:51:35;;;;;;;;;;;;;;;16.79;45.49;100063.28;10514754;28;19928;-82
2023/04/24 13:56:38;;;;;;;;;;;;;;;16.69;45.57;100072.00;10579118;28;20014;-81
2023/04/24 14:01:40;;;;;;;;;;;;;;;16.46;46.71;100077.78;10562854;28;19923;-79
2023/04/24 14:06:43;;;;;;;;;;;;;;;16.33;46.99;100087.16;10564241;28;19931;-80
2023/04/24 14:11:45;;;;;;;;;;;;;;;15.93;48.57;100097.72;10535480;28;20395;-81
2023/04/24 14:16:47;;;;;;;;;;;;;;;15.64;49.25;100084.63;10546763;28;19954;-80
2023/04/24 14:21:49;;;;;;;;;;;;;;;15.27;51.03;100089.69;10536074;28;20303;-81
2023/04/24 14:26:51;;;;;;;;;;;;;;;15.05;53.43;100078.78;10573115;28;19924;-82
2023/04/24 14:31:53;;;;;;;;;;;;;;;15.01;55.26;100084.13;10552349;28;20392;-80
2023/04/24 14:36:55;;;;;;;;;;;;;;;14.94;56.99;100083.81;10580906;28;19943;-79
2023/04/24 14:41:57;;;;;;;;;;;;;;;14.86;57.95;100098.41;10569280;28;20010;-81
2023/04/24 14:47:20;;;;;;;;;;;;;;;14.83;58.61;100110.13;10566208;28;20396;-83
2023/04/24 14:52:27;;;;;;;;;;;;;;;14.75;58.99;100122.78;10516089;28;19928;-80
2023/04/24 14:57:29;;;;;;;;;;;;;;;14.56;60.50;100119.47;10508472;28;20488;-83
2023/04/24 15:02:31;;;;;;;;;;;;;;;14.52;60.55;100115.72;10565463;28;19924;-85
2023/04/24 15:07:33;;;;;;;;;;;;;;;14.51;60.98;100108.56;10513378;28;19924;-82
2023/04/24 15:12:35;;;;;;;;;;;;;;;14.47;61.05;100107.59;10575049;28;19959;-82
2023/04/24 15:17:37;;;;;;;;;;;;;;;14.63;61.09;100111.53;10614409;28;19923;-82
2023/04/24 15:22:40;;;;;;;;;;;;;;;14.64;60.25;100090.25;10553837;28;19924;-83
2023/04/24 15:28:04;;;;;;;;;;;;;;;14.36;61.80;100112.56;10641946;27;20298;-71
2023/04/24 15:33:06;;;;;;;;;;;;;;;14.36;62.80;100107.03;10633277;27;19926;-73
2023/04/24 15:38:08;;;;;;;;;;;;;;;14.46;62.67;100100.44;10606327;28;19923;-72
2023/04/24 15:43:10;;;;;;;;;;;;;;;14.57;62.52;100095.44;10606877;28;19938;-73
2023/04/24 15:48:12;;;;;;;;;;;;;;;14.62;62.66;100093.34;10610340;28;20397;-74
2023/04/24 15:53:20;;;;;;;;;;;;;;;14.61;62.34;100097.25;10604931;28;19927;-73
2023/04/24 15:58:22;;;;;;;;;;;;;;;14.58;62.42;100102.56;10632793;28;19930;-73
2023/04/24 16:03:24;;;;;;;;;;;;;;;14.45;61.34;100102.41;10605985;28;20008;-73
2023/04/24 16:08:26;;;;;;;;;;;;;;;14.43;61.88;100103.81;10586809;28;19931;-72
2023/04/24 16:13:30;;;;;;;;;;;;;;;14.35;62.38;100099.06;10628152;27;19930;-73
2023/04/24 16:18:32;;;;;;;;;;;;;;;14.47;62.41;100102.06;10637774;28;19923;-73
2023/04/24 16:23:35;;;;;;;;;;;;;;;14.18;62.87;100106.16;10621079;28;20397;-74
2023/04/24 16:28:37;;;;;;;;;;;;;;;14.00;62.91;100098.94;10615026;27;20421;-72
2023/04/24 16:33:39;;;;;;;;;;;;;;;13.91;62.91;100111.88;10600678;28;19924;-73
2023/04/24 16:38:42;;;;;;;;;;;;;;;13.79;62.85;100109.69;10588353;28;19923;-74
2023/04/24 16:43:44;;;;;;;;;;;;;;;13.81;63.64;100112.13;10589255;27;19931;-74
2023/04/24 16:48:46;;;;;;;;;;;;;;;13.77;63.08;100116.66;10578624;28;19931;-74
2023/04/24 16:53:48;;;;;;;;;;;;;;;13.68;63.55;100118.53;10588218;28;19928;-75
2023/04/24 16:58:51;;;;;;;;;;;;;;;13.51;63.39;100131.06;10557357;28;19924;-76
2023/04/24 17:03:53;;;;;;;;;;;;;;;13.61;63.91;100129.19;10588282;27;19924;-77
2023/04/24 17:08:55;;;;;;;;;;;;;;;13.49;63.41;100127.81;10599022;27;19923;-82
2023/04/24 17:13:58;;;;;;;;;;;;;;;13.46;63.76;100133.13;10588503;28;19967;-78
2023/04/24 17:19:00;;;;;;;;;;;;;;;13.27;64.30;100141.56;10587800;28;19924;-74
2023/04/24 17:24:03;;;;;;;;;;;;;;;13.23;64.72;100141.41;10584107;28;19924;-78
2023/04/24 17:29:05;;;;;;;;;;;;;;;13.28;64.45;100144.03;10582156;28;19928;-77
2023/04/24 17:34:09;;;;;;;;;;;;;;;13.32;64.45;100143.41;10577818;28;19924;-77
2023/04/24 17:39:11;;;;;;;;;;;;;;;13.30;64.36;100160.25;10584605;28;19924;-74
2023/04/24 17:44:13;;;;;;;;;;;;;;;13.05;65.25;100161.63;10606762;27;20341;-75
2023/04/24 17:49:15;;;;;;;;;;;;;;;13.10;65.68;100167.00;10613847;27;19927;-75
2023/04/24 17:54:17;;;;;;;;;;;;;;;13.12;65.29;100161.19;10610677;27;19923;-76
2023/04/24 17:59:19;;;;;;;;;;;;;;;13.10;65.70;100175.25;10597455;27;19928;-77
2023/04/24 18:04:21;;;;;;;;;;;;;;;13.05;65.95;100166.31;10581792;27;19933;-78
2023/04/24 18:09:23;;;;;;;;;;;;;;;13.02;65.87;100162.25;10609685;27;19959;-77
2023/04/24 18:14:27;;;;;;;;;;;;;;;12.97;67.65;100152.13;10604897;27;19973;-78
2023/04/24 18:19:29;;;;;;;;;;;;;;;13.01;66.05;100160.56;10588041;27;19928;-75
2023/04/24 18:24:33;;;;;;;;;;;;;;;12.88;66.61;100156.75;10571036;28;20395;-74
2023/04/24 18:29:35;;;;;;;;;;;;;;;12.72;67.22;100163.69;10583708;28;20006;-78
2023/04/24 18:34:37;;;;;;;;;;;;;;;12.70;68.44;100149.44;10575628;28;19924;-80
2023/04/24 18:39:39;;;;;;;;;;;;;;;12.61;68.39;100151.25;10588351;28;19924;-78
2023/04/24 18:44:41;;;;;;;;;;;;;;;12.77;67.90;100149.81;10574710;28;20622;-73
2023/04/24 18:49:43;;;;;;;;;;;;;;;12.80;67.47;100149.19;10596780;27;19931;-73
2023/04/24 18:54:47;;;;;;;;;;;;;;;12.85;68.43;100156.56;10597257;28;19930;-73
2023/04/24 18:59:49;;;;;;;;;;;;;;;12.71;67.79;100155.75;10597992;27;19928;-73
2023/04/24 19:04:51;;;;;;;;;;;;;;;12.72;68.21;100163.69;10588489;28;19924;-73
2023/04/24 19:09:53;;;;;;;;;;;;;;;12.71;68.67;100167.56;10579298;28;20394;-73
2023/04/24 19:14:56;;;;;;;;;;;;;;;12.57;69.66;100173.06;10597399;28;20026;-74
2023/04/24 19:19:58;;;;;;;;;;;;;;;12.53;69.24;100171.25;10586647;28;20136;-73
2023/04/24 19:25:00;;;;;;;;;;;;;;;12.66;68.12;100165.72;10589803;28;19924;-73
2023/04/24 19:30:02;;;;;;;;;;;;;;;12.68;67.20;100170.94;10575539;28;20379;-73
2023/04/24 19:35:05;;;;;;;;;;;;;;;12.60;67.02;100177.97;10582046;28;19946;-73
2023/04/24 19:40:07;;;;;;;;;;;;;;;12.61;65.94;100178.78;10575199;28;19924;-73
2023/04/24 19:45:10;;;;;;;;;;;;;;;12.45;66.20;100181.00;10575201;28;19935;-74
2023/04/24 19:50:13;;;;;;;;;;;;;;;12.56;66.12;100184.38;10570052;28;19924;-78
2023/04/24 19:55:16;;;;;;;;;;;;;;;12.73;65.04;100184.59;10578420;28;19924;-79
2023/04/24 20:00:17;;;;;;;;;;;;;;;12.56;64.74;100173.38;10559139;28;20534;-75
2023/04/24 20:05:19;;;;;;;;;;;;;;;12.55;64.41;100191.03;10588213;28;19928;-79
2023/04/24 20:10:21;;;;;;;;;;;;;;;12.81;63.75;100192.13;10535072;28;20547;-79
2023/04/24 20:15:23;;;;;;;;;;;;;;;12.86;64.04;100202.25;10590080;28;19923;-80
2023/04/24 20:20:27;;;;;;;;;;;;;;;12.91;63.30;100215.91;10601627;27;20415;-78
2023/04/24 20:25:28;;;;;;;;;;;;;;;12.88;63.86;100224.78;10563971;27;20404;-75
2023/04/24 20:30:30;;;;;;;;;;;;;;;12.86;63.65;100219.56;10587639;28;19923;-74
2023/04/24 20:35:34;;;;;;;;;;;;;;;12.87;63.58;100215.69;10595901;28;19930;-72
2023/04/24 20:40:36;;;;;;;;;;;;;;;12.79;63.32;100215.59;10577323;28;20546;-77
2023/04/24 20:45:38;;;;;;;;;;;;;;;12.69;63.00;100219.38;10579590;28;19923;-80
2023/04/24 20:50:42;;;;;;;;;;;;;;;12.44;63.93;100217.91;10579780;28;20397;-81
2023/04/24 20:55:44;;;;;;;;;;;;;;;12.45;63.33;100226.97;10541890;28;20436;-84
2023/04/24 21:00:46;;;;;;;;;;;;;;;12.54;62.56;100236.19;10558078;28;20031;-78
2023/04/24 21:05:48;;;;;;;;;;;;;;;12.75;62.22;100242.91;10579991;27;19931;-84
2023/04/24 21:10:50;;;;;;;;;;;;;;;12.82;62.15;100235.06;10589393;28;19928;-78
2023/04/24 21:15:52;;;;;;;;;;;;;;;12.87;62.18;100226.72;10600548;28;19923;-76
2023/04/24 21:20:55;;;;;;;;;;;;;;;12.77;61.83;100228.84;10576956;28;20425;-76
2023/04/24 21:25:57;;;;;;;;;;;;;;;12.71;62.44;100236.41;10586802;28;20350;-76
2023/04/24 21:31:00;;;;;;;;;;;;;;;12.60;62.75;100234.94;10580996;27;20386;-74
2023/04/24 21:36:02;;;;;;;;;;;;;;;12.48;63.68;100229.94;10571774;27;19931;-78
2023/04/24 21:41:04;;;;;;;;;;;;;;;12.67;63.70;100227.94;10593274;27;19949;-76
2023/04/24 21:46:10;;;;;;;;;;;;;;;12.78;63.20;100239.53;10599783;27;20014;-76
2023/04/24 21:51:13;;;;;;;;;;;;;;;12.83;62.88;100228.41;10588294;27;19923;-76
2023/04/24 21:56:15;;;;;;;;;;;;;;;12.80;63.26;100218.03;10613243;27;19939;-77
2023/04/24 22:01:17;;;;;;;;;;;;;;;12.65;63.26;100219.13;10607200;27;20272;-76
2023/04/24 22:06:19;;;;;;;;;;;;;;;12.62;63.46;100224.44;10608861;27;20424;-75
2023/04/24 22:11:22;;;;;;;;;;;;;;;12.46;64.94;100214.84;10604745;27;19924;-77
2023/04/24 22:16:23;;;;;;;;;;;;;;;12.39;65.18;100212.50;10575996;28;19925;-77
2023/04/24 22:21:26;;;;;;;;;;;;;;;12.40;64.83;100213.31;10566539;28;19955;-78
2023/04/24 22:26:29;;;;;;;;;;;;;;;12.31;65.54;100203.00;10585093;28;19924;-75
2023/04/24 22:31:31;;;;;;;;;;;;;;;12.35;65.75;100195.78;10586264;27;19924;-76
2023/04/24 22:36:33;;;;;;;;;;;;;;;12.44;66.59;100200.59;10576696;28;19924;-75
2023/04/24 22:41:35;;;;;;;;;;;;;;;12.41;65.82;100191.00;10577801;28;19924;-76
2023/04/24 22:46:38;;;;;;;;;;;;;;;12.43;65.88;100183.25;10591883;28;20041;-76
2023/04/24 22:51:40;;;;;;;;;;;;;;;12.53;66.20;100176.75;10575119;28;19928;-76
2023/04/24 22:56:42;;;;;;;;;;;;;;;12.62;66.45;100178.47;10573706;28;19924;-76
2023/04/24 23:01:44;;;;;;;;;;;;;;;12.50;65.83;100174.63;10569968;28;20394;-75
2023/04/24 23:06:46;;;;;;;;;;;;;;;12.49;66.43;100171.03;10600880;27;19932;-78
2023/04/24 23:11:48;;;;;;;;;;;;;;;12.48;67.25;100174.06;10601892;28;20378;-75
2023/04/24 23:16:51;;;;;;;;;;;;;;;12.62;67.13;100174.91;10605403;27;19924;-75
2023/04/24 23:21:53;;;;;;;;;;;;;;;12.79;65.99;100168.78;10601574;28;20053;-76
2023/04/24 23:26:55;;;;;;;;;;;;;;;12.96;65.68;100158.75;10597208;28;19935;-75
2023/04/24 23:31:57;;;;;;;;;;;;;;;13.09;65.69;100156.28;10585661;28;20043;-75
2023/04/24 23:36:59;;;;;;;;;;;;;;;13.06;64.80;100141.19;10573051;28;20386;-75
2023/04/24 23:42:03;;;;;;;;;;;;;;;12.97;65.02;100149.38;10555387;28;19931;-76
2023/04/24 23:47:05;;;;;;;;;;;;;;;12.77;66.52;100138.81;10588995;28;19927;-75
2023/04/24 23:52:09;;;;;;;;;;;;;;;12.58;66.93;100136.16;10583721;28;20504;-75
2023/04/24 23:57:11;;;;;;;;;;;;;;;12.36;67.06;100133.31;10587172;28;19927;-75
